createdAt,value
2023-03-06T00:00:49.467Z,15.68
2023-03-06T00:03:16.077Z,13.23
2023-03-06T00:05:42.588Z,10.25
2023-03-06T00:08:09.006Z,9.30
2023-03-06T00:10:35.619Z,10.13
2023-03-06T00:13:07.713Z,9.82
2023-03-06T00:15:34.420Z,9.60
2023-03-06T00:18:04.335Z,9.15
2023-03-06T00:20:31.315Z,9.65
2023-03-06T00:22:57.671Z,9.57
2023-03-06T00:25:24.984Z,10.77
2023-03-06T00:27:51.852Z,10.65
2023-03-06T00:30:21.358Z,9.48
2023-03-06T00:32:48.561Z,11.25
2023-03-06T00:35:15.847Z,10.18
2023-03-06T00:37:43.853Z,10.27
2023-03-06T00:40:14.973Z,10.90
2023-03-06T00:42:41.437Z,10.80
2023-03-06T00:45:08.598Z,9.70
2023-03-06T00:47:34.965Z,9.95
2023-03-06T00:50:01.365Z,9.35
2023-03-06T00:52:27.688Z,10.05
2023-03-06T00:54:54.011Z,9.45
2023-03-06T00:57:20.365Z,9.85
2023-03-06T00:59:46.764Z,10.48
2023-03-06T01:02:13.211Z,9.93
2023-03-06T01:04:39.580Z,11.23
2023-03-06T01:07:05.951Z,10.82
2023-03-06T01:09:32.494Z,10.65
2023-03-06T01:11:58.860Z,11.38
2023-03-06T01:14:25.860Z,10.25
2023-03-06T01:16:52.213Z,11.45
2023-03-06T01:19:18.591Z,10.65
2023-03-06T01:21:45.353Z,10.57
2023-03-06T01:24:11.682Z,10.98
2023-03-06T01:26:38.029Z,9.75
2023-03-06T01:29:04.420Z,11.00
2023-03-06T01:31:30.819Z,10.73
2023-03-06T01:33:57.229Z,10.00
2023-03-06T01:36:23.631Z,9.90
2023-03-06T01:38:50.053Z,10.10
2023-03-06T01:41:17.231Z,9.63
2023-03-06T01:43:45.871Z,10.00
2023-03-06T01:46:42.125Z,9.38
2023-03-06T01:49:20.789Z,10.10
2023-03-06T01:52:05.343Z,9.32
2023-03-06T01:54:36.167Z,9.30
2023-03-06T01:57:11.520Z,8.27
2023-03-06T01:59:40.601Z,8.10
2023-03-06T02:02:10.235Z,10.68
2023-03-06T02:04:39.476Z,10.38
2023-03-06T02:07:08.086Z,9.05
2023-03-06T02:09:36.878Z,10.18
2023-03-06T02:12:08.475Z,11.50
2023-03-06T02:14:34.968Z,9.75
2023-03-06T02:17:01.468Z,10.23
2023-03-06T02:20:00.645Z,10.48
2023-03-06T02:22:36.280Z,10.25
2023-03-06T02:25:31.968Z,10.38
2023-03-06T02:27:58.736Z,10.73
2023-03-06T02:30:27.549Z,10.18
2023-03-06T02:32:54.485Z,10.68
2023-03-06T02:35:30.361Z,10.10
2023-03-06T02:38:02.485Z,11.48
2023-03-06T02:40:29.172Z,11.20
2023-03-06T02:42:57.394Z,11.18
2023-03-06T02:45:31.844Z,11.02
2023-03-06T02:47:58.182Z,10.23
2023-03-06T02:50:24.658Z,11.15
2023-03-06T02:52:51.016Z,11.35
2023-03-06T02:55:17.560Z,11.32
2023-03-06T02:57:43.923Z,11.10
2023-03-06T03:00:12.778Z,11.27
2023-03-06T03:02:39.094Z,11.65
2023-03-06T03:05:06.010Z,11.98
2023-03-06T03:07:32.666Z,10.77
2023-03-06T03:10:00.203Z,11.30
2023-03-06T03:12:28.524Z,11.90
2023-03-06T03:14:55.908Z,11.45
2023-03-06T03:17:23.252Z,11.63
2023-03-06T03:19:49.641Z,11.52
2023-03-06T03:22:17.031Z,12.05
2023-03-06T03:24:43.849Z,11.90
2023-03-06T03:27:11.034Z,11.48
2023-03-06T03:29:37.717Z,12.50
2023-03-06T03:32:04.716Z,12.27
2023-03-06T03:34:31.094Z,11.32
2023-03-06T03:36:57.542Z,13.63
2023-03-06T03:39:24.027Z,12.70
2023-03-06T03:41:50.366Z,12.82
2023-03-06T03:44:16.758Z,13.35
2023-03-06T03:46:43.396Z,13.50
2023-03-06T03:49:15.406Z,13.38
2023-03-06T03:51:43.461Z,12.35
2023-03-06T03:54:10.165Z,12.73
2023-03-06T03:59:16.846Z,13.50
2023-03-06T04:01:55.921Z,12.85
2023-03-06T04:04:23.065Z,14.88
2023-03-06T04:06:49.513Z,14.55
2023-03-06T04:09:17.804Z,15.70
2023-03-06T04:11:44.479Z,16.73
2023-03-06T04:14:10.875Z,14.93
2023-03-06T04:16:37.288Z,13.45
2023-03-06T04:19:03.757Z,13.43
2023-03-06T04:21:30.929Z,13.45
2023-03-06T04:23:58.412Z,12.10
2023-03-06T04:26:24.799Z,13.13
2023-03-06T04:28:51.311Z,13.43
2023-03-06T04:31:18.608Z,12.18
2023-03-06T04:33:44.938Z,12.20
2023-03-06T04:36:24.809Z,12.15
2023-03-06T04:38:52.245Z,11.80
2023-03-06T04:41:19.007Z,12.18
2023-03-06T04:43:46.124Z,11.70
2023-03-06T04:46:12.568Z,12.75
2023-03-06T04:48:38.936Z,11.60
2023-03-06T04:51:05.738Z,12.10
2023-03-06T04:53:32.734Z,11.95
2023-03-06T04:55:59.390Z,12.70
2023-03-06T04:58:25.795Z,12.15
2023-03-06T05:00:52.183Z,11.35
2023-03-06T05:03:18.549Z,12.20
2023-03-06T05:05:45.073Z,11.50
2023-03-06T05:08:15.976Z,11.80
2023-03-06T05:10:43.260Z,11.52
2023-03-06T05:13:09.870Z,11.70
2023-03-06T05:15:36.383Z,12.55
2023-03-06T05:18:02.880Z,11.85
2023-03-06T05:20:29.265Z,12.73
2023-03-06T05:22:56.746Z,12.30
2023-03-06T05:25:23.082Z,12.88
2023-03-06T05:27:49.408Z,12.25
2023-03-06T05:30:16.034Z,13.32
2023-03-06T05:32:42.734Z,13.25
2023-03-06T05:35:16.603Z,12.32
2023-03-06T05:37:42.949Z,14.00
2023-03-06T05:40:10.193Z,14.35
2023-03-06T05:42:36.536Z,13.75
2023-03-06T05:45:04.393Z,13.88
2023-03-06T05:47:31.570Z,14.18
2023-03-06T05:49:58.095Z,13.77
2023-03-06T05:52:24.685Z,11.88
2023-03-06T05:54:52.576Z,14.27
2023-03-06T05:57:23.013Z,13.60
2023-03-06T05:59:50.076Z,13.93
2023-03-06T06:02:17.522Z,14.13
2023-03-06T06:04:43.968Z,13.18
2023-03-06T06:07:13.997Z,13.70
2023-03-06T06:09:40.552Z,14.30
2023-03-06T06:12:07.222Z,15.77
2023-03-06T06:14:34.597Z,14.07
2023-03-06T06:17:01.210Z,15.98
2023-03-06T06:19:31.325Z,15.80
2023-03-06T06:21:57.936Z,13.68
2023-03-06T06:24:26.005Z,14.23
2023-03-06T06:26:54.743Z,14.77
2023-03-06T06:29:22.226Z,14.38
2023-03-06T06:31:49.531Z,14.40
2023-03-06T06:34:16.240Z,14.93
2023-03-06T06:36:43.472Z,13.35
2023-03-06T06:39:13.376Z,13.38
2023-03-06T06:41:57.023Z,14.63
2023-03-06T06:44:26.041Z,16.08
2023-03-06T06:47:21.884Z,16.15
2023-03-06T06:49:39.473Z,16.30
2023-03-06T06:52:06.336Z,15.38
2023-03-06T06:54:34.281Z,15.38
2023-03-06T06:57:00.609Z,17.85
2023-03-06T06:59:27.036Z,18.13
2023-03-06T07:01:53.559Z,17.02
2023-03-06T07:04:20.217Z,17.42
2023-03-06T07:06:46.897Z,20.08
2023-03-06T07:09:13.927Z,22.00
2023-03-06T07:11:40.761Z,17.92
2023-03-06T07:14:07.264Z,16.45
2023-03-06T07:16:33.570Z,16.75
2023-03-06T07:18:59.880Z,14.90
2023-03-06T07:21:26.213Z,15.55
2023-03-06T07:23:52.530Z,15.18
2023-03-06T07:26:18.848Z,15.13
2023-03-06T07:28:52.512Z,15.90
2023-03-06T07:31:25.472Z,15.55
2023-03-06T07:33:53.178Z,17.70
2023-03-06T07:36:20.921Z,20.40
2023-03-06T07:38:47.630Z,65.25
2023-03-06T07:41:16.188Z,54.03
2023-03-06T07:43:44.584Z,44.05
2023-03-06T07:46:13.412Z,50.92
2023-03-06T07:48:40.535Z,43.65
2023-03-06T07:51:18.636Z,45.30
2023-03-06T07:53:45.676Z,32.92
2023-03-06T07:56:12.902Z,31.25
2023-03-06T07:58:41.456Z,32.03
2023-03-06T08:01:10.812Z,47.20
2023-03-06T08:03:37.454Z,32.25
2023-03-06T08:06:09.440Z,32.60
2023-03-06T08:08:37.560Z,28.83
2023-03-06T08:11:03.978Z,24.33
2023-03-06T08:13:30.368Z,24.35
2023-03-06T08:15:56.797Z,24.08
2023-03-06T08:18:23.156Z,20.70
2023-03-06T08:20:49.487Z,21.02
2023-03-06T08:23:15.978Z,23.85
2023-03-06T08:25:42.307Z,21.05
2023-03-06T08:28:08.618Z,18.45
2023-03-06T08:30:34.989Z,22.23
2023-03-06T08:33:01.373Z,20.40
2023-03-06T08:35:27.866Z,20.85
2023-03-06T08:37:54.217Z,21.08
2023-03-06T08:40:20.682Z,18.73
2023-03-06T08:42:47.770Z,18.83
2023-03-06T08:45:14.093Z,19.83
2023-03-06T08:47:40.491Z,18.00
2023-03-06T08:50:07.145Z,18.08
2023-03-06T08:52:33.496Z,17.45
2023-03-06T08:55:03.342Z,17.95
2023-03-06T08:57:30.358Z,18.88
2023-03-06T08:59:56.808Z,17.98
2023-03-06T09:02:23.324Z,17.40
2023-03-06T09:04:49.696Z,18.10
2023-03-06T09:07:16.042Z,19.05
2023-03-06T09:09:42.564Z,20.75
2023-03-06T09:12:08.868Z,18.10
2023-03-06T09:14:35.228Z,20.30
2023-03-06T09:17:01.509Z,18.77
2023-03-06T09:19:27.860Z,16.83
2023-03-06T09:21:54.248Z,15.82
2023-03-06T09:24:20.559Z,16.30
2023-03-06T09:26:48.821Z,17.92
2023-03-06T09:29:17.337Z,18.25
2023-03-06T09:31:44.382Z,18.85
2023-03-06T09:34:10.726Z,17.63
2023-03-06T09:36:49.505Z,18.38
2023-03-06T09:39:21.527Z,18.60
2023-03-06T09:41:49.492Z,19.92
2023-03-06T09:44:19.805Z,21.08
2023-03-06T09:46:55.366Z,22.03
2023-03-06T09:49:37.624Z,19.60
2023-03-06T09:52:29.229Z,20.02
2023-03-06T09:55:14.635Z,35.70
2023-03-06T09:58:08.705Z,27.23
2023-03-06T10:00:43.676Z,26.40
2023-03-06T10:03:29.735Z,21.60
2023-03-06T10:06:08.342Z,21.52
2023-03-06T10:08:51.286Z,18.20
2023-03-06T10:11:48.647Z,19.83
2023-03-06T10:14:35.883Z,18.88
2023-03-06T10:17:03.739Z,17.13
2023-03-06T10:19:35.939Z,17.50
2023-03-06T10:22:11.411Z,17.05
2023-03-06T10:25:02.996Z,17.40
2023-03-06T10:27:42.644Z,16.73
2023-03-06T10:30:27.380Z,16.90
2023-03-06T10:33:08.448Z,15.80
2023-03-06T10:35:48.645Z,18.77
2023-03-06T10:38:23.022Z,20.45
2023-03-06T10:40:58.346Z,17.30
2023-03-06T10:43:25.402Z,16.52
2023-03-06T10:45:53.184Z,15.77
2023-03-06T10:48:23.174Z,16.05
2023-03-06T10:50:50.288Z,13.85
2023-03-06T10:53:23.274Z,15.10
2023-03-06T10:55:58.159Z,14.25
2023-03-06T10:58:30.101Z,16.17
2023-03-06T11:01:19.547Z,14.32
2023-03-06T11:03:47.598Z,14.80
2023-03-06T11:06:37.636Z,15.68
2023-03-06T11:09:23.493Z,14.40
2023-03-06T11:11:51.205Z,15.93
2023-03-06T11:14:27.600Z,16.70
2023-03-06T11:16:54.077Z,17.00
2023-03-06T11:19:27.869Z,17.60
2023-03-06T11:22:04.593Z,17.77
2023-03-06T11:24:42.169Z,16.63
2023-03-06T11:27:34.240Z,17.83
2023-03-06T11:30:05.343Z,17.33
2023-03-06T11:32:43.648Z,19.42
2023-03-06T11:35:16.500Z,17.98
2023-03-06T11:37:49.378Z,16.52
2023-03-06T11:40:41.756Z,17.70
2023-03-06T11:43:29.881Z,20.63
2023-03-06T11:45:59.175Z,20.95
2023-03-06T11:48:35.438Z,18.67
2023-03-06T11:51:15.992Z,23.48
2023-03-06T11:53:42.841Z,16.88
2023-03-06T11:56:28.842Z,18.75
2023-03-06T11:59:05.207Z,16.92
2023-03-06T12:01:51.942Z,26.65
2023-03-06T12:04:41.252Z,19.55
2023-03-06T12:07:40.793Z,17.45
2023-03-06T12:10:18.816Z,17.50
2023-03-06T12:12:54.320Z,18.20
2023-03-06T12:15:46.983Z,16.35
2023-03-06T12:18:50.769Z,16.23
2023-03-06T12:21:37.841Z,15.38
2023-03-06T12:24:19.869Z,19.77
2023-03-06T12:26:58.844Z,15.45
2023-03-06T12:29:40.728Z,15.00
2023-03-06T12:32:22.382Z,16.52
2023-03-06T12:35:08.613Z,14.80
2023-03-06T12:38:00.934Z,15.82
2023-03-06T12:40:54.387Z,14.15
2023-03-06T12:43:40.157Z,13.60
2023-03-06T12:46:15.244Z,12.98
2023-03-06T12:48:45.819Z,12.77
2023-03-06T12:51:16.612Z,13.80
2023-03-06T12:53:44.469Z,15.48
2023-03-06T12:56:15.410Z,13.50
2023-03-06T12:58:47.885Z,13.77
2023-03-06T13:01:37.523Z,13.00
2023-03-06T13:04:44.259Z,13.50
2023-03-06T13:07:52.730Z,14.63
2023-03-06T13:10:27.322Z,13.30
2023-03-06T13:12:55.938Z,13.85
2023-03-06T13:15:42.539Z,13.88
2023-03-06T13:18:21.239Z,13.45
2023-03-06T13:20:49.429Z,13.35
2023-03-06T13:23:34.837Z,13.10
2023-03-06T13:26:10.571Z,15.43
2023-03-06T13:28:50.005Z,15.80
2023-03-06T13:31:28.616Z,15.95
2023-03-06T13:34:01.060Z,16.45
2023-03-06T13:36:30.464Z,26.25
2023-03-06T13:39:01.948Z,24.10
2023-03-06T13:41:31.264Z,26.33
2023-03-06T13:44:05.938Z,17.65
2023-03-06T13:46:35.462Z,18.27
2023-03-06T13:49:07.601Z,19.58
2023-03-06T13:51:40.552Z,18.48
2023-03-06T13:54:28.297Z,17.08
2023-03-06T13:57:27.179Z,17.25
2023-03-06T14:00:11.287Z,15.65
2023-03-06T14:02:46.454Z,15.27
2023-03-06T14:05:15.672Z,16.35
2023-03-06T14:07:45.396Z,16.02
2023-03-06T14:10:21.332Z,15.18
2023-03-06T14:12:50.601Z,15.45
2023-03-06T14:15:18.850Z,16.25
2023-03-06T14:18:14.522Z,15.75
2023-03-06T14:20:45.039Z,15.00
2023-03-06T14:23:21.357Z,16.75
2023-03-06T14:25:54.657Z,15.52
2023-03-06T14:28:26.648Z,16.48
2023-03-06T14:30:54.913Z,15.98
2023-03-06T14:33:30.682Z,16.67
2023-03-06T14:36:01.604Z,17.88
2023-03-06T14:38:34.158Z,17.50
2023-03-06T14:41:01.384Z,16.88
2023-03-06T14:43:28.123Z,15.85
2023-03-06T14:45:57.500Z,17.00
2023-03-06T14:48:38.330Z,17.02
2023-03-06T14:51:05.728Z,16.48
2023-03-06T14:53:34.003Z,16.58
2023-03-06T14:56:05.075Z,17.08
2023-03-06T14:58:43.813Z,17.25
2023-03-06T15:01:15.533Z,15.63
2023-03-06T15:03:51.192Z,17.48
2023-03-06T15:06:22.418Z,17.50
2023-03-06T15:11:20.574Z,20.10
2023-03-06T15:14:00.951Z,20.08
2023-03-06T15:16:30.387Z,22.27
2023-03-06T15:19:04.320Z,23.77
2023-03-06T15:21:36.269Z,21.30
2023-03-06T15:24:30.793Z,20.27
2023-03-06T15:27:01.703Z,17.90
2023-03-06T15:29:28.148Z,19.75
2023-03-06T15:32:24.453Z,18.70
2023-03-06T15:35:28.483Z,18.25
2023-03-06T15:37:55.538Z,17.55
2023-03-06T15:40:24.439Z,17.30
2023-03-06T15:42:50.843Z,17.35
2023-03-06T15:45:20.484Z,22.48
2023-03-06T15:47:48.729Z,18.95
2023-03-06T15:50:17.855Z,18.45
2023-03-06T15:52:45.212Z,20.42
2023-03-06T15:55:13.143Z,18.23
2023-03-06T15:57:46.359Z,17.63
2023-03-06T16:00:27.409Z,17.90
2023-03-06T16:02:58.264Z,17.58
2023-03-06T16:05:25.695Z,15.70
2023-03-06T16:07:52.361Z,17.00
2023-03-06T16:10:21.168Z,16.98
2023-03-06T16:12:50.411Z,16.13
2023-03-06T16:15:20.045Z,17.85
2023-03-06T16:17:47.174Z,15.60
2023-03-06T16:20:19.453Z,16.63
2023-03-06T16:22:46.875Z,17.27
2023-03-06T16:25:14.298Z,16.17
2023-03-06T16:27:43.690Z,16.92
2023-03-06T16:30:18.878Z,17.27
2023-03-06T16:32:46.196Z,15.57
2023-03-06T16:35:13.813Z,16.02
2023-03-06T16:37:41.110Z,14.90
2023-03-06T16:40:32.441Z,15.18
2023-03-06T16:42:58.721Z,14.63
2023-03-06T16:45:25.027Z,16.45
2023-03-06T16:47:51.574Z,15.35
2023-03-06T16:50:33.293Z,14.93
2023-03-06T16:52:59.801Z,15.13
2023-03-06T16:55:27.193Z,16.25
2023-03-06T16:57:54.314Z,24.30
2023-03-06T17:00:31.156Z,22.48
2023-03-06T17:03:20.662Z,25.30
2023-03-06T17:05:46.948Z,22.70
2023-03-06T17:08:13.633Z,17.58
2023-03-06T17:10:41.872Z,19.20
2023-03-06T17:13:08.539Z,23.35
2023-03-06T17:15:34.855Z,32.10
2023-03-06T17:18:01.198Z,32.75
2023-03-06T17:20:27.605Z,24.65
2023-03-06T17:22:54.187Z,24.27
2023-03-06T17:25:20.542Z,30.52
2023-03-06T17:27:46.865Z,33.17
2023-03-06T17:30:13.501Z,32.40
2023-03-06T17:32:40.886Z,26.02
2023-03-06T17:35:09.311Z,22.23
2023-03-06T17:37:35.813Z,25.80
2023-03-06T17:40:02.148Z,33.95
2023-03-06T17:42:28.612Z,28.40
2023-03-06T17:44:55.009Z,22.73
2023-03-06T17:47:21.337Z,20.52
2023-03-06T17:49:47.703Z,19.52
2023-03-06T17:52:14.006Z,17.48
2023-03-06T17:54:40.421Z,17.50
2023-03-06T17:57:06.749Z,15.88
2023-03-06T17:59:36.368Z,16.77
2023-03-06T18:02:02.909Z,15.93
2023-03-06T18:04:29.810Z,16.23
2023-03-06T18:06:57.057Z,14.60
2023-03-06T18:09:23.980Z,14.95
2023-03-06T18:11:50.310Z,16.63
2023-03-06T18:14:16.630Z,16.70
2023-03-06T18:16:43.009Z,15.65
2023-03-06T18:19:10.923Z,14.35
2023-03-06T18:21:38.885Z,14.70
2023-03-06T18:24:05.619Z,15.18
2023-03-06T18:26:32.089Z,15.13
2023-03-06T18:29:03.476Z,15.35
2023-03-06T18:31:34.460Z,15.10
2023-03-06T18:34:10.127Z,15.98
2023-03-06T18:36:37.023Z,15.27
2023-03-06T18:39:06.072Z,16.63
2023-03-06T18:41:32.732Z,16.65
2023-03-06T18:44:00.580Z,16.25
2023-03-06T18:46:32.783Z,16.33
2023-03-06T18:48:59.388Z,16.77
2023-03-06T18:51:25.792Z,17.25
2023-03-06T18:53:52.208Z,18.48
2023-03-06T18:56:21.708Z,17.02
2023-03-06T18:58:48.206Z,17.30
2023-03-06T19:01:14.944Z,18.48
2023-03-06T19:03:41.408Z,15.73
2023-03-06T19:06:13.288Z,17.52
2023-03-06T19:08:40.328Z,18.10
2023-03-06T19:11:09.586Z,17.63
2023-03-06T19:13:36.501Z,17.90
2023-03-06T19:16:03.152Z,18.42
2023-03-06T19:18:30.156Z,16.85
2023-03-06T19:21:10.126Z,18.40
2023-03-06T19:23:36.500Z,17.48
2023-03-06T19:26:02.814Z,18.05
2023-03-06T19:28:29.469Z,17.58
2023-03-06T19:30:56.870Z,17.83
2023-03-06T19:33:23.201Z,18.05
2023-03-06T19:35:49.614Z,17.48
2023-03-06T19:38:16.040Z,16.88
2023-03-06T19:40:51.742Z,17.67
2023-03-06T19:43:18.085Z,17.60
2023-03-06T19:45:44.862Z,17.63
2023-03-06T19:48:12.398Z,19.27
2023-03-06T19:50:39.866Z,17.23
2023-03-06T19:53:07.688Z,17.45
2023-03-06T19:55:34.691Z,17.55
2023-03-06T19:58:01.068Z,17.90
2023-03-06T20:00:27.876Z,17.95
2023-03-06T20:02:54.193Z,17.08
2023-03-06T20:05:20.544Z,18.10
2023-03-06T20:07:46.932Z,17.60
2023-03-06T20:10:13.268Z,17.55
2023-03-06T20:12:39.604Z,16.88
2023-03-06T20:15:06.750Z,17.30
2023-03-06T20:17:34.183Z,18.20
2023-03-06T20:20:00.681Z,17.63
2023-03-06T20:22:27.183Z,18.65
2023-03-06T20:24:53.630Z,18.35
2023-03-06T20:27:20.168Z,18.13
2023-03-06T20:29:46.788Z,18.65
2023-03-06T20:32:13.435Z,17.67
2023-03-06T20:34:40.181Z,17.50
2023-03-06T20:37:08.602Z,18.48
2023-03-06T20:39:35.785Z,17.45
2023-03-06T20:42:05.165Z,18.75
2023-03-06T20:44:31.757Z,17.58
2023-03-06T20:46:58.104Z,18.08
2023-03-06T20:49:27.105Z,18.08
2023-03-06T20:51:53.574Z,18.15
2023-03-06T20:54:19.945Z,18.17
2023-03-06T20:56:48.229Z,25.48
2023-03-06T20:59:15.192Z,26.27
2023-03-06T21:01:44.678Z,25.80
2023-03-06T21:04:13.748Z,22.77
2023-03-06T21:06:42.354Z,23.45
2023-03-06T21:09:08.676Z,23.35
2023-03-06T21:11:35.245Z,22.58
2023-03-06T21:14:01.882Z,21.80
2023-03-06T21:16:30.105Z,21.38
2023-03-06T21:18:58.508Z,21.33
2023-03-06T21:21:27.500Z,21.05
2023-03-06T21:23:54.040Z,21.02
2023-03-06T21:26:22.578Z,25.02
2023-03-06T21:28:49.635Z,23.35
2023-03-06T21:31:17.876Z,21.80
2023-03-06T21:33:45.055Z,22.85
2023-03-06T21:36:11.566Z,25.05
2023-03-06T21:38:38.611Z,24.90
2023-03-06T21:41:16.863Z,19.92
2023-03-06T21:43:43.239Z,20.52
2023-03-06T21:46:11.136Z,21.98
2023-03-06T21:48:37.835Z,20.83
2023-03-06T21:51:09.981Z,20.83
2023-03-06T21:53:36.863Z,18.83
2023-03-06T21:56:04.301Z,20.17
2023-03-06T21:58:30.682Z,20.10
2023-03-06T22:00:57.303Z,19.95
2023-03-06T22:03:24.095Z,20.58
2023-03-06T22:05:51.911Z,19.60
2023-03-06T22:08:24.209Z,19.63
2023-03-06T22:10:50.600Z,21.40
2023-03-06T22:13:16.933Z,28.70
2023-03-06T22:15:51.666Z,31.38
2023-03-06T22:18:18.195Z,26.38
2023-03-06T22:20:45.033Z,25.00
2023-03-06T22:23:11.865Z,28.30
2023-03-06T22:25:38.290Z,23.33
2023-03-06T22:28:04.588Z,31.35
2023-03-06T22:30:30.896Z,27.05
2023-03-06T22:32:57.255Z,27.08
2023-03-06T22:35:23.621Z,23.23
2023-03-06T22:37:49.906Z,30.13
2023-03-06T22:40:16.622Z,25.38
2023-03-06T22:42:43.049Z,25.63
2023-03-06T22:45:09.794Z,28.10
2023-03-06T22:47:36.838Z,34.30
2023-03-06T22:50:04.422Z,29.55
2023-03-06T22:52:30.732Z,54.50
2023-03-06T22:54:57.027Z,41.78
2023-03-06T22:57:23.376Z,32.15
2023-03-06T22:59:49.665Z,30.58
2023-03-06T23:02:15.978Z,47.90
2023-03-06T23:04:42.385Z,39.78
2023-03-06T23:07:08.720Z,35.08
2023-03-06T23:09:35.004Z,36.83
2023-03-06T23:12:19.744Z,34.47
2023-03-06T23:15:05.121Z,34.42
2023-03-06T23:17:51.089Z,29.05
2023-03-06T23:20:41.578Z,24.98
2023-03-06T23:23:27.030Z,24.45
2023-03-06T23:25:59.065Z,23.40
2023-03-06T23:28:26.142Z,23.23
2023-03-06T23:30:52.556Z,23.00
2023-03-06T23:33:19.067Z,22.73
2023-03-06T23:35:45.584Z,23.83
2023-03-06T23:38:12.339Z,22.25
2023-03-06T23:40:38.960Z,22.83
2023-03-06T23:43:05.460Z,23.85
2023-03-06T23:45:32.049Z,21.98
2023-03-06T23:47:58.806Z,23.58
2023-03-06T23:50:26.169Z,22.90
2023-03-06T23:52:53.585Z,20.92
2023-03-06T23:55:20.052Z,22.60
2023-03-06T23:57:46.370Z,21.55
